Airfield :
LOGIN :

Register | Disclaimer

   EN    FR    IT 

 










Legend :    VFR   Marginal VFR   IFR   Intensive IFR   Very Intensive IFR
Visi :
Ceiling :
>= 8 km
>= 3000ft
5 to 8 km
1000 to 3000 ft
1500m to 5 km
500 to 1000 ft
800 to 1500m
200 to 500 ft
< 800m
< 200 ft
Symbols :   Thunderstorms  Fog  Heavy snow  Heavy precipitations  Wind > 20 kt
SIGMETs :     Misc.  Thunderstorms  Icing  Turbulence  Mountain Waves  Volcanic Ashes







- Airport Elevation : -15 ft
- IATA code : RTM


EHRD - Rotterdam Zestienhoven

CURRENT METAR :
  • 212125Z AUTO 32008KT 270V020 9999 FEW037 11/06 Q1026 NOSIG

EXPIRED METARs :
  • 212055Z AUTO 31007KT 250V360 9999 NCD 11/07 Q1026 NOSIG
  • 212025Z AUTO 31009KT 260V360 9999 FEW034 12/07 Q1026 NOSIG
  • 211955Z AUTO 31010KT 270V360 9999 FEW029 BKN034 OVC039 12/06 Q1026 NOSIG
  • 211925Z AUTO 31012KT 260V360 9999 FEW034 12/05 Q1026 NOSIG
  • 211855Z AUTO 32012KT 260V010 9999 FEW033/// 12/06 Q1025 NOSIG

TAF TAF EHRD
Valid from the 21 at 18:00 until the 23 at 00:00 UTC


211700Z 2118/2224 31018G28KT 9999 SCT025
BECMG 2203/2206 32013KT
PROB30
TEMPO 2207/2215 7000 -RADZ -SHRA FEW018TCU BKN020
BECMG 2217/2220 30007KT CAVOK
No reported NOTAMs for that airfield.



MET'MAP, your aeronautical weather chart ! - Copyright ORBIFLY December 2007 - Disclaimer

ORBIFLY MET'MAP TEAM :

Programming & Development : Alexandra Zaïnal
Concept & Development : Baudouin d'Aumeries
Co-Development & Prog : Marc-Olivier Méhu
Technical & hardware support : Manuel Goepfert

Contact : metmap@orbifly.com




SOURCES & CREDITS :

   NOAA